Terminal Aerodrome Forecast
Issued by NWS

Home | Current Version | Previous Version | Text Only | Print | Product List | Glossary On
Versions: 1 2 3 4 5 6 7 8 9 10 11 12 13 14 15 16
000
FTUS45 KVEF 212215 AAB
TAFVGT
TAF AMD
KVGT 212215Z 2122/2218 24018G28KT P6SM SCT090 SCT150
     FM220300 26012G18KT P6SM FEW090
     FM220600 32014G20KT P6SM FEW080=

USA.gov is the U.S. government's official web portal to all federal, state and local government web resources and services.